createdAt,value
2023-01-20T00:01:29.237Z,99.44
2023-01-20T00:03:57.758Z,99.14
2023-01-20T00:06:29.777Z,99.71
2023-01-20T00:09:00.443Z,99.03
2023-01-20T00:11:30.552Z,99.26
2023-01-20T00:14:00.988Z,99.00
2023-01-20T00:16:29.861Z,98.75
2023-01-20T00:18:57.478Z,97.01
2023-01-20T00:21:24.839Z,97.51
2023-01-20T00:23:52.451Z,97.66
2023-01-20T00:26:21.948Z,97.74
2023-01-20T00:28:50.086Z,99.33
2023-01-20T00:31:18.863Z,99.21
2023-01-20T00:33:47.888Z,97.89
2023-01-20T00:36:16.887Z,97.43
2023-01-20T00:38:44.970Z,98.15
2023-01-20T00:41:12.703Z,97.61
2023-01-20T00:43:40.675Z,98.29
2023-01-20T00:46:08.329Z,98.14
2023-01-20T00:48:36.539Z,97.45
2023-01-20T00:51:05.760Z,97.02
2023-01-20T00:53:33.407Z,97.10
2023-01-20T00:56:01.000Z,97.29
2023-01-20T00:58:28.369Z,98.21
2023-01-20T01:00:56.198Z,98.22
2023-01-20T01:03:23.587Z,96.85
2023-01-20T01:05:50.948Z,97.23
2023-01-20T01:08:18.328Z,98.15
2023-01-20T01:10:45.719Z,99.81
2023-01-20T01:13:13.052Z,98.62
2023-01-20T01:15:40.394Z,98.64
2023-01-20T01:18:07.695Z,99.40
2023-01-20T01:20:35.018Z,99.80
2023-01-20T01:23:02.346Z,98.28
2023-01-20T01:25:29.665Z,97.45
2023-01-20T01:27:56.975Z,97.23
2023-01-20T01:30:24.270Z,97.35
2023-01-20T01:32:51.561Z,96.54
2023-01-20T01:35:18.917Z,97.23
2023-01-20T01:37:46.349Z,97.55
2023-01-20T01:40:13.907Z,98.03
2023-01-20T01:42:42.909Z,98.73
2023-01-20T01:45:10.562Z,98.78
2023-01-20T01:47:56.207Z,99.82
2023-01-20T01:50:38.247Z,98.53
2023-01-20T01:53:07.457Z,97.77
2023-01-20T01:55:39.576Z,96.79
2023-01-20T01:58:10.533Z,95.15
2023-01-20T02:00:38.960Z,94.86
2023-01-20T02:03:07.419Z,95.40
2023-01-20T02:05:37.139Z,96.13
2023-01-20T02:08:05.311Z,95.07
2023-01-20T02:10:32.632Z,94.52
2023-01-20T02:13:00.771Z,94.45
2023-01-20T02:15:34.161Z,95.90
2023-01-20T02:18:29.597Z,95.59
2023-01-20T02:21:15.095Z,95.17
2023-01-20T02:24:07.385Z,94.59
2023-01-20T02:27:02.523Z,95.25
2023-01-20T02:29:54.106Z,94.36
2023-01-20T02:32:29.013Z,95.28
2023-01-20T02:35:07.941Z,95.58
2023-01-20T02:37:41.148Z,94.40
2023-01-20T02:40:22.201Z,94.52
2023-01-20T02:43:00.043Z,94.17
2023-01-20T02:45:37.764Z,93.10
2023-01-20T02:48:10.814Z,93.58
2023-01-20T02:50:38.156Z,93.36
2023-01-20T02:53:07.651Z,92.47
2023-01-20T02:55:40.069Z,91.87
2023-01-20T02:58:14.092Z,93.06
2023-01-20T03:00:49.410Z,94.22
2023-01-20T03:03:22.741Z,93.38
2023-01-20T03:05:55.873Z,93.94
2023-01-20T03:08:27.041Z,94.90
2023-01-20T03:10:57.713Z,94.92
2023-01-20T03:13:30.715Z,95.75
2023-01-20T03:16:06.351Z,96.17
2023-01-20T03:18:34.690Z,95.99
2023-01-20T03:21:04.118Z,94.99
2023-01-20T03:23:35.156Z,95.76
2023-01-20T03:26:07.761Z,94.68
2023-01-20T03:28:35.330Z,95.47
2023-01-20T03:31:11.936Z,95.48
2023-01-20T03:33:39.667Z,96.11
2023-01-20T03:36:07.552Z,95.92
2023-01-20T03:38:35.007Z,94.90
2023-01-20T03:41:23.017Z,95.19
2023-01-20T03:44:11.626Z,94.47
2023-01-20T03:46:52.447Z,95.56
2023-01-20T03:49:44.541Z,95.42
2023-01-20T03:52:47.442Z,94.92
2023-01-20T03:55:23.159Z,95.90
2023-01-20T03:58:03.468Z,95.76
2023-01-20T04:00:37.073Z,95.09
2023-01-20T04:03:11.459Z,94.88
2023-01-20T04:05:40.723Z,94.50
2023-01-20T04:08:10.003Z,93.21
2023-01-20T04:10:42.822Z,95.25
2023-01-20T04:13:10.249Z,96.10
2023-01-20T04:15:41.652Z,95.82
2023-01-20T04:18:19.396Z,96.10
2023-01-20T04:20:51.295Z,96.15
2023-01-20T04:23:27.893Z,95.34
2023-01-20T04:25:55.299Z,96.14
2023-01-20T04:28:22.780Z,96.50
2023-01-20T04:30:50.854Z,95.85
2023-01-20T04:33:18.361Z,95.67
2023-01-20T04:35:45.691Z,95.58
2023-01-20T04:38:13.075Z,95.82
2023-01-20T04:40:40.574Z,94.73
2023-01-20T04:43:10.055Z,95.04
2023-01-20T04:45:37.651Z,94.71
2023-01-20T04:48:08.853Z,95.95
2023-01-20T04:50:40.726Z,96.01
2023-01-20T04:53:13.447Z,96.41
2023-01-20T04:55:40.733Z,96.31
2023-01-20T04:58:10.262Z,97.05
2023-01-20T05:00:37.552Z,98.16
2023-01-20T05:03:06.176Z,97.44
2023-01-20T05:05:33.766Z,95.57
2023-01-20T05:08:01.195Z,96.28
2023-01-20T05:10:28.546Z,95.59
2023-01-20T05:12:55.895Z,96.33
2023-01-20T05:15:23.278Z,96.15
2023-01-20T05:17:50.578Z,95.99
2023-01-20T05:20:20.323Z,94.79
2023-01-20T05:22:48.216Z,95.67
2023-01-20T05:25:15.885Z,95.02
2023-01-20T05:27:44.981Z,94.87
2023-01-20T05:30:12.972Z,93.08
2023-01-20T05:32:40.311Z,93.31
2023-01-20T05:35:08.956Z,94.47
2023-01-20T05:37:36.192Z,93.07
2023-01-20T05:40:03.983Z,93.48
2023-01-20T05:42:33.038Z,93.91
2023-01-20T05:45:00.309Z,93.39
2023-01-20T05:47:28.490Z,94.51
2023-01-20T05:49:55.804Z,95.20
2023-01-20T05:52:23.187Z,93.86
2023-01-20T05:54:50.618Z,94.26
2023-01-20T05:57:18.459Z,95.38
2023-01-20T05:59:49.637Z,94.73
2023-01-20T06:02:18.836Z,95.26
2023-01-20T06:04:46.978Z,95.95
2023-01-20T06:07:15.342Z,96.54
2023-01-20T06:09:42.753Z,95.80
2023-01-20T06:12:10.172Z,95.63
2023-01-20T06:14:37.552Z,95.14
2023-01-20T06:17:05.103Z,95.34
2023-01-20T06:19:32.507Z,95.07
2023-01-20T06:21:59.805Z,96.12
2023-01-20T06:24:27.747Z,93.93
2023-01-20T06:26:55.203Z,93.37
2023-01-20T06:29:22.586Z,93.19
2023-01-20T06:31:49.987Z,92.76
2023-01-20T06:34:17.451Z,92.29
2023-01-20T06:36:44.903Z,93.21
2023-01-20T06:39:12.299Z,93.56
2023-01-20T06:41:39.799Z,92.64
2023-01-20T06:44:09.911Z,92.50
2023-01-20T06:46:37.400Z,91.62
2023-01-20T06:49:04.861Z,92.27
2023-01-20T06:51:33.553Z,91.71
2023-01-20T06:54:00.976Z,91.47
2023-01-20T06:56:28.404Z,91.94
2023-01-20T06:58:55.811Z,91.00
2023-01-20T07:01:28.880Z,91.00
2023-01-20T07:03:56.350Z,91.65
2023-01-20T07:06:38.608Z,90.69
2023-01-20T07:09:08.399Z,90.31
2023-01-20T07:11:36.028Z,89.32
2023-01-20T07:14:04.912Z,90.12
2023-01-20T07:16:32.907Z,89.73
2023-01-20T07:19:00.564Z,87.61
2023-01-20T07:21:28.567Z,87.79
2023-01-20T07:23:56.111Z,87.49
2023-01-20T07:26:26.377Z,87.13
2023-01-20T07:28:54.022Z,87.15
2023-01-20T07:31:23.862Z,87.99
2023-01-20T07:33:52.026Z,88.11
2023-01-20T07:36:19.434Z,88.13
2023-01-20T07:38:48.818Z,87.79
2023-01-20T07:41:18.277Z,88.45
2023-01-20T07:43:47.326Z,89.51
2023-01-20T07:46:15.220Z,88.47
2023-01-20T07:48:42.703Z,89.77
2023-01-20T07:51:13.038Z,90.13
2023-01-20T07:53:41.888Z,89.20
2023-01-20T07:56:12.578Z,87.74
2023-01-20T07:58:39.943Z,86.56
2023-01-20T08:01:09.340Z,85.37
2023-01-20T08:03:37.025Z,83.42
2023-01-20T08:06:10.887Z,84.62
2023-01-20T08:08:38.611Z,83.70
2023-01-20T08:11:08.070Z,83.78
2023-01-20T08:13:35.653Z,83.42
2023-01-20T08:16:05.279Z,84.74
2023-01-20T08:18:33.960Z,82.89
2023-01-20T08:21:06.471Z,81.58
2023-01-20T08:23:37.399Z,81.53
2023-01-20T08:26:06.785Z,81.59
2023-01-20T08:28:35.963Z,81.20
2023-01-20T08:31:09.202Z,82.42
2023-01-20T08:33:37.328Z,81.16
2023-01-20T08:36:06.819Z,82.28
2023-01-20T08:38:35.636Z,82.02
2023-01-20T08:41:07.980Z,81.80
2023-01-20T08:43:35.349Z,82.74
2023-01-20T08:46:06.629Z,81.94
2023-01-20T08:48:35.240Z,79.17
2023-01-20T08:51:14.366Z,77.43
2023-01-20T08:53:42.508Z,71.96
2023-01-20T08:56:10.797Z,71.75
2023-01-20T08:58:38.703Z,70.48
2023-01-20T09:01:11.966Z,68.64
2023-01-20T09:03:40.118Z,67.84
2023-01-20T09:06:08.771Z,66.14
2023-01-20T09:08:37.261Z,66.20
2023-01-20T09:11:13.973Z,66.13
2023-01-20T09:13:41.928Z,66.48
2023-01-20T09:16:15.022Z,65.08
2023-01-20T09:18:43.231Z,65.50
2023-01-20T09:21:11.409Z,64.16
2023-01-20T09:23:40.160Z,66.08
2023-01-20T09:26:08.274Z,66.77
2023-01-20T09:28:36.094Z,66.74
2023-01-20T09:31:09.610Z,66.98
2023-01-20T09:33:39.253Z,67.88
2023-01-20T09:36:09.346Z,67.39
2023-01-20T09:38:56.439Z,67.32
2023-01-20T09:41:47.409Z,66.87
2023-01-20T09:44:14.641Z,67.13
2023-01-20T09:47:21.756Z,67.40
2023-01-20T09:50:47.034Z,64.12
2023-01-20T09:53:33.283Z,67.25
2023-01-20T09:56:08.910Z,67.90
2023-01-20T09:59:08.422Z,68.11
2023-01-20T10:01:47.272Z,69.03
2023-01-20T10:04:29.813Z,69.43
2023-01-20T10:07:25.022Z,66.90
2023-01-20T10:10:41.132Z,67.66
2023-01-20T10:13:08.609Z,67.77
2023-01-20T10:15:37.804Z,67.62
2023-01-20T10:18:10.133Z,67.30
2023-01-20T10:20:47.811Z,66.41
2023-01-20T10:23:36.451Z,67.51
2023-01-20T10:26:13.362Z,67.26
2023-01-20T10:28:56.459Z,65.69
2023-01-20T10:31:29.261Z,66.70
2023-01-20T10:34:01.753Z,66.21
2023-01-20T10:36:31.067Z,66.75
2023-01-20T10:39:22.240Z,63.04
2023-01-20T10:41:55.234Z,61.99
2023-01-20T10:44:23.278Z,60.23
2023-01-20T10:47:13.706Z,59.36
2023-01-20T10:49:59.587Z,59.92
2023-01-20T10:52:54.494Z,60.82
2023-01-20T10:55:24.850Z,60.53
2023-01-20T10:57:56.591Z,62.58
2023-01-20T11:00:30.461Z,60.58
2023-01-20T11:03:01.060Z,61.71
2023-01-20T11:05:31.456Z,61.30
2023-01-20T11:08:00.131Z,61.78
2023-01-20T11:10:32.432Z,58.12
2023-01-20T11:13:01.673Z,57.85
2023-01-20T11:15:35.929Z,58.80
2023-01-20T11:18:20.034Z,59.37
2023-01-20T11:20:54.228Z,61.04
2023-01-20T11:23:37.645Z,58.55
2023-01-20T11:26:28.544Z,56.79
2023-01-20T11:28:59.836Z,56.40
2023-01-20T11:31:38.425Z,56.89
2023-01-20T11:34:21.665Z,57.46
2023-01-20T11:36:50.648Z,57.48
2023-01-20T11:39:27.285Z,56.88
2023-01-20T11:42:14.967Z,56.63
2023-01-20T11:44:45.800Z,56.05
2023-01-20T11:47:23.730Z,56.83
2023-01-20T11:50:09.322Z,56.40
2023-01-20T11:52:43.785Z,56.20
2023-01-20T11:55:20.599Z,57.60
2023-01-20T11:57:54.771Z,57.29
2023-01-20T12:00:43.249Z,57.48
2023-01-20T12:03:10.573Z,57.82
2023-01-20T12:05:44.049Z,55.90
2023-01-20T12:08:17.860Z,55.13
2023-01-20T12:10:46.221Z,53.79
2023-01-20T12:13:13.569Z,54.46
2023-01-20T12:15:46.715Z,55.48
2023-01-20T12:18:31.980Z,55.46
2023-01-20T12:21:08.033Z,54.48
2023-01-20T12:23:46.243Z,54.55
2023-01-20T12:26:19.485Z,55.45
2023-01-20T12:29:07.395Z,54.44
2023-01-20T12:31:34.873Z,53.78
2023-01-20T12:34:12.337Z,53.14
2023-01-20T12:37:08.385Z,53.59
2023-01-20T12:39:48.029Z,52.92
2023-01-20T12:43:07.322Z,51.29
2023-01-20T12:45:37.497Z,51.91
2023-01-20T12:48:31.070Z,52.34
2023-01-20T12:51:14.536Z,53.40
2023-01-20T12:54:13.437Z,51.82
2023-01-20T12:56:58.250Z,52.77
2023-01-20T13:00:00.662Z,53.76
2023-01-20T13:02:55.980Z,53.95
2023-01-20T13:05:41.665Z,52.00
2023-01-20T13:08:36.681Z,51.66
2023-01-20T13:11:12.081Z,52.06
2023-01-20T13:14:14.417Z,50.63
2023-01-20T13:17:07.088Z,50.56
2023-01-20T13:19:38.977Z,49.86
2023-01-20T13:22:21.317Z,50.70
2023-01-20T13:24:52.401Z,49.34
2023-01-20T13:27:26.605Z,49.53
2023-01-20T13:29:59.358Z,49.59
2023-01-20T13:32:48.819Z,49.99
2023-01-20T13:35:25.267Z,49.36
2023-01-20T13:37:54.946Z,48.24
2023-01-20T13:40:45.668Z,49.61
2023-01-20T13:43:25.441Z,48.92
2023-01-20T13:46:04.788Z,48.06
2023-01-20T13:48:33.640Z,46.83
2023-01-20T13:51:16.787Z,46.64
2023-01-20T13:53:44.287Z,45.67
2023-01-20T13:56:34.921Z,47.38
2023-01-20T13:59:02.289Z,49.52
2023-01-20T14:01:29.905Z,49.25
2023-01-20T14:04:16.559Z,49.12
2023-01-20T14:06:49.540Z,48.70
2023-01-20T14:09:25.194Z,47.00
2023-01-20T14:11:55.283Z,47.48
2023-01-20T14:14:25.037Z,47.33
2023-01-20T14:16:53.024Z,48.31
2023-01-20T14:19:34.096Z,48.12
2023-01-20T14:22:16.523Z,47.33
2023-01-20T14:24:46.108Z,46.96
2023-01-20T14:27:21.562Z,46.65
2023-01-20T14:29:54.571Z,47.43
2023-01-20T14:32:35.389Z,46.84
2023-01-20T14:35:13.742Z,47.10
2023-01-20T14:37:41.658Z,48.93
2023-01-20T14:40:11.663Z,49.99
2023-01-20T14:42:39.954Z,49.90
2023-01-20T14:45:22.043Z,47.87
2023-01-20T14:47:50.489Z,48.46
2023-01-20T14:50:19.696Z,52.19
2023-01-20T14:52:48.468Z,53.80
2023-01-20T14:55:29.159Z,56.31
2023-01-20T14:57:56.985Z,57.55
2023-01-20T15:00:34.038Z,59.17
2023-01-20T15:03:20.320Z,60.52
2023-01-20T15:05:55.441Z,62.13
2023-01-20T15:08:34.614Z,63.27
2023-01-20T15:11:14.332Z,63.31
2023-01-20T15:13:43.401Z,64.50
2023-01-20T15:16:14.076Z,64.79
2023-01-20T15:18:41.489Z,65.45
2023-01-20T15:21:24.630Z,65.44
2023-01-20T15:23:52.813Z,65.47
2023-01-20T15:26:30.402Z,65.88
2023-01-20T15:28:58.471Z,66.26
2023-01-20T15:31:26.667Z,66.88
2023-01-20T15:33:54.118Z,66.56
2023-01-20T15:36:29.843Z,67.06
2023-01-20T15:38:57.209Z,67.01
2023-01-20T15:41:24.937Z,67.77
2023-01-20T15:43:52.616Z,68.06
2023-01-20T15:46:20.404Z,67.82
2023-01-20T15:48:47.836Z,67.97
2023-01-20T15:51:17.440Z,67.88
2023-01-20T15:53:46.120Z,68.05
2023-01-20T15:56:21.420Z,67.94
2023-01-20T15:58:49.285Z,68.31
2023-01-20T16:01:20.682Z,68.98
2023-01-20T16:03:48.160Z,68.77
2023-01-20T16:06:17.962Z,68.92
2023-01-20T16:08:48.073Z,69.52
2023-01-20T16:11:17.271Z,69.23
2023-01-20T16:13:45.282Z,70.08
2023-01-20T16:16:15.369Z,69.69
2023-01-20T16:18:43.393Z,70.46
2023-01-20T16:21:16.538Z,70.10
2023-01-20T16:23:44.334Z,70.20
2023-01-20T16:26:23.248Z,70.47
2023-01-20T16:28:52.234Z,70.48
2023-01-20T16:31:20.199Z,70.46
2023-01-20T16:33:47.829Z,70.82
2023-01-20T16:36:17.484Z,71.10
2023-01-20T16:38:45.642Z,70.95
2023-01-20T16:41:27.447Z,70.68
2023-01-20T16:43:55.433Z,71.13
2023-01-20T16:46:25.304Z,71.38
2023-01-20T16:48:54.573Z,71.57
2023-01-20T16:51:25.347Z,71.04
2023-01-20T16:53:54.138Z,70.91
2023-01-20T16:56:26.224Z,71.93
2023-01-20T16:58:57.734Z,71.77
2023-01-20T17:01:26.140Z,71.17
2023-01-20T17:03:56.897Z,70.72
2023-01-20T17:06:26.719Z,70.85
2023-01-20T17:08:56.002Z,71.92
2023-01-20T17:11:28.293Z,71.79
2023-01-20T17:13:56.210Z,71.79
2023-01-20T17:16:26.122Z,72.21
2023-01-20T17:18:55.639Z,72.01
2023-01-20T17:21:25.432Z,71.73
2023-01-20T17:23:55.258Z,71.47
2023-01-20T17:26:23.644Z,72.46
2023-01-20T17:28:55.986Z,72.34
2023-01-20T17:31:23.858Z,71.89
2023-01-20T17:33:51.857Z,72.16
2023-01-20T17:36:19.476Z,72.66
2023-01-20T17:38:46.885Z,73.59
2023-01-20T17:41:15.136Z,72.58
2023-01-20T17:43:46.550Z,72.72
2023-01-20T17:46:25.143Z,71.85
2023-01-20T17:48:52.507Z,72.13
2023-01-20T17:51:22.587Z,72.91
2023-01-20T17:53:50.868Z,74.13
2023-01-20T17:56:20.275Z,74.04
2023-01-20T17:58:49.123Z,73.78
2023-01-20T18:01:20.547Z,74.51
2023-01-20T18:03:50.287Z,74.38
2023-01-20T18:06:19.969Z,74.71
2023-01-20T18:08:55.524Z,74.50
2023-01-20T18:11:24.571Z,74.58
2023-01-20T18:13:55.120Z,74.32
2023-01-20T18:16:26.620Z,75.34
2023-01-20T18:18:58.519Z,75.01
2023-01-20T18:21:31.415Z,75.21
2023-01-20T18:24:00.264Z,75.87
2023-01-20T18:26:29.833Z,76.23
2023-01-20T18:28:59.750Z,76.65
2023-01-20T18:31:28.749Z,77.23
2023-01-20T18:33:58.981Z,77.69
2023-01-20T18:36:28.909Z,77.81
2023-01-20T18:39:01.735Z,77.79
2023-01-20T18:41:31.358Z,78.35
2023-01-20T18:43:59.200Z,78.04
2023-01-20T18:46:27.767Z,78.95
2023-01-20T18:48:55.616Z,78.82
2023-01-20T18:51:26.475Z,78.73
2023-01-20T18:53:58.143Z,77.98
2023-01-20T18:56:26.564Z,78.60
2023-01-20T18:58:54.785Z,80.38
2023-01-20T19:01:28.834Z,80.92
2023-01-20T19:03:57.327Z,81.13
2023-01-20T19:06:26.799Z,80.33
2023-01-20T19:08:56.264Z,81.78
2023-01-20T19:11:26.245Z,81.78
2023-01-20T19:13:54.651Z,80.54
2023-01-20T19:16:24.615Z,80.75
2023-01-20T19:18:54.217Z,80.43
2023-01-20T19:21:23.069Z,80.63
2023-01-20T19:23:55.687Z,80.52
2023-01-20T19:26:25.531Z,80.85
2023-01-20T19:29:02.436Z,80.69
2023-01-20T19:31:32.714Z,78.47
2023-01-20T19:34:00.687Z,77.95
2023-01-20T19:36:28.300Z,77.75
2023-01-20T19:38:55.749Z,78.00
2023-01-20T19:41:28.344Z,77.52
2023-01-20T19:43:57.763Z,78.04
2023-01-20T19:46:27.385Z,78.61
2023-01-20T19:48:57.290Z,77.76
2023-01-20T19:51:25.672Z,76.65
2023-01-20T19:53:57.924Z,76.05
2023-01-20T19:56:27.568Z,76.32
2023-01-20T19:58:55.659Z,76.20
2023-01-20T20:01:25.745Z,76.02
2023-01-20T20:03:54.417Z,76.15
2023-01-20T20:06:33.440Z,74.91
2023-01-20T20:09:12.138Z,74.17
2023-01-20T20:11:39.550Z,73.37
2023-01-20T20:14:10.413Z,72.22
2023-01-20T20:16:38.194Z,71.72
2023-01-20T20:19:07.396Z,72.13
2023-01-20T20:21:35.220Z,72.01
2023-01-20T20:24:05.207Z,72.06
2023-01-20T20:26:36.083Z,71.65
2023-01-20T20:29:05.855Z,71.62
2023-01-20T20:31:35.659Z,71.25
2023-01-20T20:34:05.034Z,71.01
2023-01-20T20:36:33.519Z,71.67
2023-01-20T20:39:03.810Z,73.23
2023-01-20T20:41:31.932Z,73.94
2023-01-20T20:44:01.357Z,75.32
2023-01-20T20:46:29.876Z,74.88
2023-01-20T20:48:59.442Z,73.97
2023-01-20T20:51:28.757Z,73.81
2023-01-20T20:53:57.983Z,73.82
2023-01-20T20:56:28.055Z,73.60
2023-01-20T20:59:02.023Z,73.66
2023-01-20T21:01:34.409Z,74.32
2023-01-20T21:04:03.602Z,76.76
2023-01-20T21:06:32.077Z,76.17
2023-01-20T21:08:59.992Z,76.42
2023-01-20T21:11:28.402Z,77.62
2023-01-20T21:13:56.262Z,77.69
2023-01-20T21:16:25.923Z,77.96
2023-01-20T21:18:56.226Z,78.11
2023-01-20T21:21:27.686Z,78.21
2023-01-20T21:23:57.167Z,79.08
2023-01-20T21:26:29.620Z,78.66
2023-01-20T21:29:00.225Z,77.53
2023-01-20T21:31:27.805Z,77.51
2023-01-20T21:33:58.429Z,77.20
2023-01-20T21:36:27.711Z,76.06
2023-01-20T21:38:55.186Z,76.24
2023-01-20T21:41:22.488Z,76.82
2023-01-20T21:44:08.780Z,78.25
2023-01-20T21:46:39.491Z,79.78
2023-01-20T21:49:26.868Z,78.23
2023-01-20T21:52:13.804Z,78.20
2023-01-20T21:54:42.057Z,77.85
2023-01-20T21:57:14.493Z,79.27
2023-01-20T21:59:42.971Z,79.72
2023-01-20T22:02:15.045Z,81.73
2023-01-20T22:04:43.131Z,81.15
2023-01-20T22:07:11.257Z,80.38
2023-01-20T22:09:39.834Z,79.85
2023-01-20T22:12:08.414Z,79.76
2023-01-20T22:14:36.450Z,80.05
2023-01-20T22:17:04.671Z,80.20
2023-01-20T22:19:42.110Z,79.33
2023-01-20T22:22:10.197Z,81.37
2023-01-20T22:24:41.528Z,81.91
2023-01-20T22:27:16.173Z,81.38
2023-01-20T22:29:44.404Z,80.77
2023-01-20T22:32:12.375Z,81.19
2023-01-20T22:34:39.747Z,80.76
2023-01-20T22:37:08.077Z,81.47
2023-01-20T22:39:35.487Z,82.10
2023-01-20T22:42:03.998Z,80.57
2023-01-20T22:44:31.316Z,80.15
2023-01-20T22:46:59.081Z,80.25
2023-01-20T22:49:26.386Z,80.77
2023-01-20T22:51:57.827Z,81.23
2023-01-20T22:54:25.149Z,81.31
2023-01-20T22:56:52.405Z,80.54
2023-01-20T22:59:19.747Z,81.70
2023-01-20T23:01:47.120Z,82.73
2023-01-20T23:04:15.509Z,81.62
2023-01-20T23:06:42.813Z,81.37
2023-01-20T23:09:11.894Z,80.03
2023-01-20T23:11:40.229Z,81.48
2023-01-20T23:14:10.537Z,82.16
2023-01-20T23:16:38.591Z,82.45
2023-01-20T23:19:24.949Z,80.71
2023-01-20T23:21:52.314Z,82.66
2023-01-20T23:24:19.673Z,83.84
2023-01-20T23:26:46.915Z,82.87
2023-01-20T23:29:14.203Z,83.55
2023-01-20T23:31:41.520Z,82.10
2023-01-20T23:34:08.830Z,82.24
2023-01-20T23:36:36.114Z,81.57
2023-01-20T23:39:03.525Z,81.12
2023-01-20T23:41:30.803Z,79.69
2023-01-20T23:43:58.243Z,80.52
2023-01-20T23:46:25.693Z,81.43
2023-01-20T23:48:52.937Z,79.46
2023-01-20T23:51:20.517Z,79.39
2023-01-20T23:54:15.676Z,79.29
2023-01-20T23:56:42.991Z,79.88
2023-01-20T23:59:10.257Z,81.47
